Time;durP1;ratioP1;P1;durP2;ratioP2;P2;SDS_P1;SDS_P2;PMS_P1;PMS_P2;Temp;Humidity;BMP_temperature;BMP_pressure;BME280_temperature;BME280_humidity;BME280_pressure;Samples;Min_cycle;Max_cycle;Signal;HPM_P1;HPM_P2
2022/08/29 00:01:03;;;;;;;20.63;9.65;;;;;;;18.87;95.55;96905.03;5022626;28;20069;-71
2022/08/29 00:03:31;;;;;;;20.48;8.88;;;;;;;18.86;94.81;96911.84;5024663;28;20145;-70
2022/08/29 00:05:57;;;;;;;17.08;8.20;;;;;;;18.76;95.57;96901.59;5024998;28;20052;-71
2022/08/29 00:08:24;;;;;;;20.15;9.75;;;;;;;18.79;95.18;96917.59;5024448;28;20049;-70
2022/08/29 00:10:51;;;;;;;21.40;9.13;;;;;;;18.57;95.38;96891.13;5023254;28;20053;-71
2022/08/29 00:13:18;;;;;;;23.13;8.90;;;;;;;18.42;95.98;96878.53;5023373;28;20049;-72
2022/08/29 00:15:46;;;;;;;19.20;9.73;;;;;;;18.60;95.36;96904.28;5023384;28;20061;-72
2022/08/29 00:18:15;;;;;;;17.70;8.13;;;;;;;18.62;95.00;96924.28;5024864;28;20114;-69
2022/08/29 00:20:43;;;;;;;20.48;9.63;;;;;;;18.51;94.55;96923.66;5024396;28;20065;-71
2022/08/29 00:23:11;;;;;;;20.02;9.40;;;;;;;18.20;94.07;96885.66;5024732;28;20484;-71
2022/08/29 00:25:38;;;;;;;21.77;9.70;;;;;;;18.53;95.02;96918.41;5023387;28;20054;-71
2022/08/29 00:28:05;;;;;;;17.27;9.15;;;;;;;17.68;94.76;96780.75;5024295;28;20439;-72
2022/08/29 00:30:33;;;;;;;19.63;9.20;;;;;;;18.39;95.69;96887.78;5024477;28;20060;-72
2022/08/29 00:33:00;;;;;;;20.85;10.57;;;;;;;18.64;95.65;96915.44;5023201;28;20061;-69
2022/08/29 00:35:33;;;;;;;21.55;9.95;;;;;;;18.66;95.75;96911.00;5037081;28;20076;-73
2022/08/29 00:38:03;;;;;;;17.42;9.55;;;;;;;18.29;95.41;96866.28;5044468;28;20553;-72
2022/08/29 00:40:38;;;;;;;19.60;9.52;;;;;;;18.70;95.10;96914.53;5044725;28;20124;-71
2022/08/29 00:43:06;;;;;;;16.85;9.40;;;;;;;18.16;95.91;96856.91;5044487;28;20049;-72
2022/08/29 00:45:36;;;;;;;17.58;9.85;;;;;;;17.71;95.45;96775.09;5044592;28;20061;-72
2022/08/29 00:48:14;;;;;;;15.57;8.50;;;;;;;18.53;96.52;96910.00;5043136;28;20061;-73
2022/08/29 00:50:58;;;;;;;17.80;8.73;;;;;;;18.63;94.78;96914.66;5043317;28;20111;-72
2022/08/29 00:53:30;;;;;;;15.83;7.73;;;;;;;18.53;94.95;96907.19;5044562;28;20049;-71
2022/08/29 00:55:58;;;;;;;21.30;9.50;;;;;;;17.80;96.41;96810.97;5044226;28;20053;-72
2022/08/29 00:58:33;;;;;;;18.92;9.30;;;;;;;18.41;95.03;96907.81;5044316;28;20067;-71
2022/08/29 01:01:00;;;;;;;15.50;8.82;;;;;;;18.39;95.76;96904.63;5043224;28;20052;-69
2022/08/29 01:03:31;;;;;;;21.27;9.15;;;;;;;18.13;97.05;96899.78;5042698;28;20060;-71
2022/08/29 01:05:59;;;;;;;16.05;9.27;;;;;;;18.22;98.19;96911.28;5042437;28;20486;-72
2022/08/29 01:08:27;;;;;;;19.25;9.57;;;;;;;17.58;98.48;96837.72;5043750;28;20144;-73
2022/08/29 01:13:42;;;;;;;17.10;8.88;;;;;;;18.20;97.87;96919.31;5046815;28;20049;-72
2022/08/29 01:16:13;;;;;;;19.05;9.18;;;;;;;17.59;98.26;96833.72;5047812;28;20067;-73
2022/08/29 01:18:42;;;;;;;21.45;9.00;;;;;;;17.52;97.44;96817.00;5046821;28;20610;-72
2022/08/29 01:21:20;;;;;;;18.35;8.52;;;;;;;18.20;96.97;96912.91;5047660;28;20057;-70
2022/08/29 01:24:15;;;;;;;14.18;8.02;;;;;;;18.26;96.53;96905.63;5046127;28;20052;-72
2022/08/29 01:26:44;;;;;;;20.20;9.30;;;;;;;17.90;96.26;96858.47;5046212;28;20060;-72
2022/08/29 01:29:11;;;;;;;16.58;8.77;;;;;;;18.22;96.29;96910.47;5047076;28;20068;-72
2022/08/29 01:31:44;;;;;;;18.10;9.18;;;;;;;18.13;96.50;96913.03;5047268;28;20055;-72
2022/08/29 01:34:26;;;;;;;14.30;8.63;;;;;;;18.08;96.78;96911.47;5042452;28;20077;-73
2022/08/29 01:37:04;;;;;;;21.77;8.95;;;;;;;18.14;96.00;96912.59;5025651;28;20562;-73
2022/08/29 01:39:35;;;;;;;19.25;9.35;;;;;;;18.13;95.96;96914.59;5027017;28;20087;-72
2022/08/29 01:42:08;;;;;;;15.43;8.63;;;;;;;18.08;95.87;96911.47;5025943;28;20455;-70
2022/08/29 01:44:36;;;;;;;13.20;8.55;;;;;;;17.02;97.02;96768.44;5001740;28;20081;-71
2022/08/29 01:47:05;;;;;;;17.02;8.57;;;;;;;17.47;97.78;96842.66;5025808;28;20508;-72
2022/08/29 01:49:35;;;;;;;19.40;9.43;;;;;;;17.77;97.23;96879.06;5025696;28;20523;-72
2022/08/29 01:52:07;;;;;;;18.00;9.80;;;;;;;18.02;97.62;96918.75;5025755;28;20103;-73
2022/08/29 01:54:34;;;;;;;21.00;9.18;;;;;;;18.02;98.04;96915.94;5027402;28;20057;-72
2022/08/29 01:57:01;;;;;;;23.02;9.43;;;;;;;18.06;97.49;96913.91;5027003;28;20527;-74
2022/08/29 01:59:29;;;;;;;21.45;9.10;;;;;;;18.02;97.38;96910.34;5026752;28;20052;-72
2022/08/29 02:02:02;;;;;;;17.25;8.80;;;;;;;17.54;96.96;96831.38;5026893;28;20088;-73
2022/08/29 02:04:29;;;;;;;20.13;10.10;;;;;;;18.05;95.95;96913.09;5027128;28;20536;-72
2022/08/29 02:06:57;;;;;;;18.75;9.43;;;;;;;18.04;96.60;96916.34;5025695;28;20063;-72
2022/08/29 02:09:24;;;;;;;18.88;9.13;;;;;;;17.59;95.33;96844.94;5026788;28;20061;-72
2022/08/29 02:11:53;;;;;;;18.67;8.68;;;;;;;17.96;95.80;96926.84;5026903;28;20107;-73
2022/08/29 02:14:20;;;;;;;19.00;9.45;;;;;;;17.75;95.99;96875.94;5025937;28;20061;-73
2022/08/29 02:16:48;;;;;;;20.23;10.13;;;;;;;17.35;95.14;96810.41;5026809;28;20478;-72
2022/08/29 02:19:15;;;;;;;19.08;9.82;;;;;;;17.98;95.08;96915.22;5025177;28;20119;-70
2022/08/29 02:21:43;;;;;;;23.35;10.77;;;;;;;18.02;94.90;96918.75;5027048;28;20060;-73
2022/08/29 02:24:10;;;;;;;19.60;8.82;;;;;;;17.32;95.81;96824.44;5024737;28;20046;-72
2022/08/29 02:26:52;;;;;;;15.95;8.75;;;;;;;17.88;96.76;96925.38;5026728;28;20053;-72
2022/08/29 02:29:19;;;;;;;24.17;10.20;;;;;;;17.73;96.63;96892.34;5024877;28;20065;-73
2022/08/29 02:31:46;;;;;;;19.17;9.57;;;;;;;17.09;96.21;96782.34;5026268;28;20068;-73
2022/08/29 02:34:13;;;;;;;15.70;8.60;;;;;;;17.91;96.24;96918.91;5026837;28;20436;-73
2022/08/29 02:36:40;;;;;;;18.05;9.07;;;;;;;17.89;95.29;96923.38;5045577;28;20424;-72
2022/08/29 02:39:10;;;;;;;21.58;8.90;;;;;;;17.49;96.48;96896.25;5044464;28;20091;-72
2022/08/29 02:41:37;;;;;;;16.55;9.30;;;;;;;17.63;97.74;96930.50;5046217;28;20052;-71
2022/08/29 02:44:04;;;;;;;23.85;9.75;;;;;;;17.58;98.08;96913.34;5044645;28;20053;-71
2022/08/29 02:46:32;;;;;;;20.73;9.05;;;;;;;17.63;97.41;96912.88;5044743;28;20064;-71
2022/08/29 02:48:59;;;;;;;17.30;9.57;;;;;;;17.67;96.95;96930.47;5044537;28;20053;-72
2022/08/29 02:51:30;;;;;;;24.55;9.45;;;;;;;17.48;97.75;96903.09;5044412;28;20049;-73
2022/08/29 02:53:57;;;;;;;17.88;10.82;;;;;;;17.69;96.60;96944.81;5046208;28;20057;-73
2022/08/29 02:56:25;;;;;;;19.90;9.88;;;;;;;17.65;96.61;96944.09;5046373;28;20278;-73
2022/08/29 02:58:52;;;;;;;22.75;10.00;;;;;;;17.13;96.29;96861.47;5044687;28;20151;-72
2022/08/29 03:01:20;;;;;;;20.38;10.32;;;;;;;17.69;95.59;96964.44;5044718;28;20124;-73
2022/08/29 03:03:49;;;;;;;19.55;10.05;;;;;;;17.59;95.93;96948.56;5046056;28;20056;-73
2022/08/29 03:06:17;;;;;;;24.45;9.60;;;;;;;17.54;96.45;96954.63;5046359;28;20102;-72
2022/08/29 03:08:44;;;;;;;20.40;9.82;;;;;;;16.59;95.85;96822.09;5044317;28;20494;-74
2022/08/29 03:11:11;;;;;;;16.05;9.18;;;;;;;16.60;96.90;96820.88;5045826;28;20130;-73
2022/08/29 03:13:38;;;;;;;18.27;9.35;;;;;;;16.11;99.37;96789.75;5045434;28;20076;-74
2022/08/29 03:16:04;;;;;;;15.13;9.95;;;;;;;16.11;100.00;96784.97;5043851;28;20055;-73
2022/08/29 03:18:31;;;;;;;17.02;10.18;;;;;;;16.38;100.00;96830.63;5045291;28;20052;-71
2022/08/29 03:20:58;;;;;;;16.48;9.75;;;;;;;17.38;99.57;96962.78;5043773;28;20049;-73
2022/08/29 03:23:26;;;;;;;20.23;11.48;;;;;;;17.46;99.46;96961.50;5045266;28;20056;-73
2022/08/29 03:25:53;;;;;;;21.92;10.45;;;;;;;17.58;98.01;96960.97;5045307;28;20454;-73
2022/08/29 03:28:20;;;;;;;19.40;10.13;;;;;;;17.51;98.39;96963.88;5043659;28;20048;-73
2022/08/29 03:30:47;;;;;;;19.02;10.13;;;;;;;16.87;99.06;96881.72;5043981;28;20076;-72
2022/08/29 03:33:14;;;;;;;17.27;10.18;;;;;;;17.45;98.18;96951.53;5044917;28;20060;-70
2022/08/29 03:35:41;;;;;;;19.95;10.00;;;;;;;17.64;97.30;96964.91;5030460;28;20091;-71
2022/08/29 03:38:08;;;;;;;19.20;9.15;;;;;;;17.33;97.07;96929.63;5023672;28;20076;-72
2022/08/29 03:40:35;;;;;;;13.30;9.40;;;;;;;17.38;96.84;96940.38;5023716;28;20049;-72
2022/08/29 03:43:02;;;;;;;16.30;8.98;;;;;;;17.68;96.44;96960.06;5023708;28;20064;-71
2022/08/29 03:45:29;;;;;;;18.63;9.80;;;;;;;17.58;95.09;96966.56;5024928;28;20151;-69
2022/08/29 03:47:56;;;;;;;24.20;9.45;;;;;;;17.47;95.62;96954.69;5024567;28;20057;-69
2022/08/29 03:50:23;;;;;;;17.95;10.15;;;;;;;16.94;96.00;96887.25;5023452;28;20057;-69
2022/08/29 03:52:50;;;;;;;19.90;10.27;;;;;;;17.31;96.12;96923.66;5023491;28;20053;-69
2022/08/29 03:55:18;;;;;;;20.48;10.48;;;;;;;17.74;95.49;96975.19;5024742;28;20091;-69
2022/08/29 03:57:46;;;;;;;20.30;10.75;;;;;;;17.75;95.55;96971.19;5024818;28;20052;-69
2022/08/29 04:00:16;;;;;;;20.10;9.52;;;;;;;17.62;94.86;96944.94;5023125;28;20882;-70
2022/08/29 04:02:45;;;;;;;16.33;10.18;;;;;;;15.53;94.87;96609.13;5023435;28;20072;-69
2022/08/29 04:05:14;;;;;;;17.73;9.15;;;;;;;17.92;94.14;96978.56;5023062;28;20068;-68
2022/08/29 04:07:51;;;;;;;18.83;9.45;;;;;;;17.97;93.34;96980.91;5024954;28;20523;-71
2022/08/29 04:10:33;;;;;;;22.33;10.27;;;;;;;17.58;93.18;96921.75;5024881;28;20081;-69
2022/08/29 04:13:00;;;;;;;17.75;9.48;;;;;;;17.83;92.58;96953.06;5024617;28;20055;-70
2022/08/29 04:15:28;;;;;;;20.17;10.50;;;;;;;17.88;93.15;96959.00;5023218;28;20049;-69
2022/08/29 04:17:57;;;;;;;21.92;9.40;;;;;;;17.92;92.00;96953.34;5024395;28;20535;-68
2022/08/29 04:20:26;;;;;;;20.02;9.50;;;;;;;17.19;92.33;96834.59;5023356;28;20053;-69
2022/08/29 04:22:54;;;;;;;20.83;10.43;;;;;;;18.20;91.01;96981.00;5024442;28;20056;-69
2022/08/29 04:25:23;;;;;;;19.85;8.75;;;;;;;17.37;90.25;96838.00;5024482;28;20061;-68
2022/08/29 04:27:50;;;;;;;19.15;9.00;;;;;;;18.14;91.10;96960.25;5024268;28;20053;-68
2022/08/29 04:30:20;;;;;;;21.27;9.77;;;;;;;17.91;91.70;96918.09;5024527;28;20072;-70
2022/08/29 04:32:47;;;;;;;17.08;9.07;;;;;;;18.42;91.44;96976.69;5022916;28;20053;-69
2022/08/29 04:35:15;;;;;;;21.30;9.88;;;;;;;18.41;90.91;96958.28;5028465;28;20056;-68
2022/08/29 04:37:42;;;;;;;17.15;9.15;;;;;;;18.65;90.16;96962.69;5024192;28;20056;-68
2022/08/29 04:40:14;;;;;;;14.65;8.68;;;;;;;17.54;89.96;96792.16;5022781;28;20073;-69
2022/08/29 04:42:42;;;;;;;24.48;9.93;;;;;;;18.44;89.69;96939.81;5022624;28;20495;-67
2022/08/29 04:45:11;;;;;;;19.63;9.65;;;;;;;18.65;88.12;96945.09;5022769;28;20057;-67
2022/08/29 04:47:39;;;;;;;19.40;10.13;;;;;;;18.98;88.16;96980.63;5026834;28;20054;-67
2022/08/29 04:50:09;;;;;;;22.05;9.77;;;;;;;19.09;87.71;96993.28;5026409;28;20065;-67
2022/08/29 04:52:36;;;;;;;20.52;9.52;;;;;;;18.72;87.01;96914.91;5026587;28;20068;-65
2022/08/29 04:55:04;;;;;;;19.83;10.93;;;;;;;19.09;86.47;96937.13;5026577;28;20057;-68
2022/08/29 04:57:31;;;;;;;24.67;9.90;;;;;;;19.61;84.96;96989.94;5028026;28;20064;-70
2022/08/29 04:59:58;;;;;;;21.08;9.55;;;;;;;19.59;83.77;96951.03;5028093;28;20436;-70
2022/08/29 05:02:26;;;;;;;21.20;9.57;;;;;;;19.83;82.88;96949.75;5026159;28;20504;-68
2022/08/29 05:04:55;;;;;;;13.85;8.48;;;;;;;19.84;82.03;96926.00;5028046;28;20049;-70
2022/08/29 05:07:25;;;;;;;21.35;9.43;;;;;;;20.06;81.65;96948.88;5023774;28;20145;-70
2022/08/29 05:09:57;;;;;;;20.92;9.02;;;;;;;20.26;81.12;96944.03;5027867;28;20054;-65
2022/08/29 05:12:25;;;;;;;18.20;9.98;;;;;;;20.69;80.14;96981.22;5027305;28;20064;-71
2022/08/29 05:14:52;;;;;;;15.48;8.18;;;;;;;20.54;79.84;96934.91;5027967;28;20057;-70
2022/08/29 05:17:19;;;;;;;20.45;8.05;;;;;;;20.79;79.25;96964.06;5027623;28;20567;-69
2022/08/29 05:19:46;;;;;;;16.80;8.27;;;;;;;19.35;78.30;96722.75;5028016;28;20057;-70
2022/08/29 05:22:14;;;;;;;16.08;8.75;;;;;;;21.14;78.09;96978.50;5027353;28;20068;-69
2022/08/29 05:24:41;;;;;;;17.77;7.95;;;;;;;21.12;77.59;96970.50;5027545;28;20045;-70
2022/08/29 05:27:09;;;;;;;25.77;8.95;;;;;;;21.32;76.91;96974.03;5025693;28;20061;-70
2022/08/29 05:29:41;;;;;;;16.52;8.60;;;;;;;21.46;76.78;96970.81;5027506;28;20076;-70
2022/08/29 05:32:09;;;;;;;17.95;9.05;;;;;;;19.98;76.15;96868.69;5027236;28;20053;-70
2022/08/29 05:34:37;;;;;;;18.33;8.52;;;;;;;21.90;75.30;96975.66;5030559;28;20056;-70
2022/08/29 05:37:07;;;;;;;22.50;8.82;;;;;;;22.05;74.21;96982.47;5046791;28;20061;-69
2022/08/29 05:39:35;;;;;;;16.90;9.70;;;;;;;22.17;73.72;96976.09;5045734;28;20778;-69
2022/08/29 05:42:03;;;;;;;18.20;8.77;;;;;;;21.92;72.36;96899.84;5045516;28;20578;-69
2022/08/29 05:44:31;;;;;;;21.05;9.90;;;;;;;21.99;71.22;96899.63;5045610;28;20044;-70
2022/08/29 05:47:05;;;;;;;21.85;9.32;;;;;;;20.95;70.62;96750.03;5047021;28;20056;-73
2022/08/29 05:49:35;;;;;;;21.10;9.63;;;;;;;22.72;70.88;96985.31;5047229;28;20121;-70
2022/08/29 05:52:03;;;;;;;19.98;9.88;;;;;;;22.83;70.74;96980.09;5045593;28;20407;-63
2022/08/29 05:54:33;;;;;;;17.65;9.23;;;;;;;22.81;72.08;96976.97;5046911;28;20539;-63
2022/08/29 05:57:00;;;;;;;20.00;10.30;;;;;;;22.86;73.10;96962.28;5046628;28;20049;-64
2022/08/29 05:59:26;;;;;;;18.55;9.80;;;;;;;22.35;73.41;96849.31;5046419;28;20060;-64
2022/08/29 06:01:53;;;;;;;16.02;9.75;;;;;;;22.26;73.23;96896.38;5045726;28;20049;-62
2022/08/29 06:04:20;;;;;;;22.13;10.00;;;;;;;23.14;72.87;96945.16;5047137;28;20049;-65
2022/08/29 06:06:47;;;;;;;22.38;9.20;;;;;;;22.34;72.46;96791.28;5046551;28;20612;-63
2022/08/29 06:09:13;;;;;;;18.58;10.48;;;;;;;23.53;72.79;96972.13;5046793;28;20061;-63
2022/08/29 06:11:40;;;;;;;15.40;9.00;;;;;;;23.37;71.23;96932.69;5047355;28;20801;-62
2022/08/29 06:14:07;;;;;;;16.05;9.68;;;;;;;23.59;69.52;96964.63;5046855;28;20053;-63
2022/08/29 06:16:34;;;;;;;15.93;9.82;;;;;;;23.66;68.53;96953.06;5027803;28;20053;-65
2022/08/29 06:19:00;;;;;;;20.80;10.57;;;;;;;23.88;68.95;96965.19;5009344;28;20050;-65
2022/08/29 06:21:27;;;;;;;20.63;9.65;;;;;;;23.63;68.75;96923.66;5015549;28;20054;-69
2022/08/29 06:23:54;;;;;;;13.77;8.70;;;;;;;24.09;68.81;96972.91;5044185;28;20467;-63
2022/08/29 06:26:21;;;;;;;16.85;10.35;;;;;;;24.15;68.32;96973.91;5045722;28;20055;-64
2022/08/29 06:28:48;;;;;;;18.13;8.45;;;;;;;24.15;67.80;96956.94;5040054;28;20053;-72
2022/08/29 06:31:27;;;;;;;16.20;8.93;;;;;;;24.44;66.63;96980.06;5006077;28;20121;-71
2022/08/29 06:34:00;;;;;;;14.60;7.82;;;;;;;24.36;64.70;96956.09;5007960;28;20562;-68
2022/08/29 06:36:28;;;;;;;15.98;8.43;;;;;;;24.71;64.66;96985.09;5023364;28;20435;-69
2022/08/29 06:38:57;;;;;;;25.52;8.18;;;;;;;24.64;62.82;96932.34;5013421;28;20157;-64
2022/08/29 06:41:25;;;;;;;15.98;7.32;;;;;;;24.31;62.25;96866.09;5014114;28;20057;-64
2022/08/29 06:43:54;;;;;;;17.75;7.85;;;;;;;25.18;61.28;96921.19;5022819;28;20041;-61
2022/08/29 06:46:27;;;;;;;18.85;8.57;;;;;;;25.89;60.47;96983.41;5023822;28;20056;-67
2022/08/29 06:48:55;;;;;;;16.75;7.93;;;;;;;25.82;59.45;96936.25;5006268;28;20054;-68
2022/08/29 06:51:23;;;;;;;17.33;7.43;;;;;;;26.53;58.02;96987.78;5005968;28;20054;-72
2022/08/29 06:53:50;;;;;;;14.27;7.22;;;;;;;26.85;56.24;96978.56;5022914;28;20045;-64
2022/08/29 06:56:19;;;;;;;21.52;8.25;;;;;;;26.19;55.10;96874.56;5014979;28;20054;-71
2022/08/29 06:58:46;;;;;;;14.13;7.78;;;;;;;27.32;53.26;96977.88;5012621;28;20057;-72
2022/08/29 07:01:15;;;;;;;20.63;7.82;;;;;;;27.27;50.95;96948.03;5025131;28;20064;-61
2022/08/29 07:03:42;;;;;;;21.92;7.63;;;;;;;27.60;51.17;96954.44;5025114;28;20049;-74
2022/08/29 07:06:09;;;;;;;10.93;8.20;;;;;;;27.86;50.20;96972.63;5025510;28;20050;-62
2022/08/29 07:08:37;;;;;;;16.33;7.50;;;;;;;28.05;50.47;96979.75;5005009;28;20135;-69
2022/08/29 07:11:20;;;;;;;15.00;7.75;;;;;;;28.01;50.24;96950.66;5005581;28;20053;-67
2022/08/29 07:13:47;;;;;;;18.00;7.68;;;;;;;28.26;44.34;96982.75;5005167;28;20569;-62
2022/08/29 07:16:15;;;;;;;20.10;7.07;;;;;;;28.17;46.82;96934.41;5012527;28;20547;-70
2022/08/29 07:18:46;;;;;;;13.93;7.45;;;;;;;28.38;45.57;96973.13;5019870;28;20074;-64
2022/08/29 07:21:15;;;;;;;17.25;7.40;;;;;;;28.65;46.41;97010.72;5004969;28;20053;-68
2022/08/29 07:23:47;;;;;;;22.73;8.02;;;;;;;27.48;46.77;96764.81;5004753;28;20064;-67
2022/08/29 07:26:28;;;;;;;23.95;7.80;;;;;;;28.89;46.44;96967.84;5004784;28;20512;-71
2022/08/29 07:28:58;;;;;;;17.73;7.40;;;;;;;27.26;47.13;96701.81;5004950;28;20635;-76
2022/08/29 07:31:28;;;;;;;14.65;7.80;;;;;;;29.13;47.75;96977.06;5013456;28;20140;-71
2022/08/29 07:33:56;;;;;;;17.73;7.40;;;;;;;29.22;46.76;96931.28;5017210;28;20046;-77
2022/08/29 07:36:28;;;;;;;15.95;8.23;;;;;;;29.47;46.56;96962.00;5004439;28;20081;-76
2022/08/29 07:38:54;;;;;;;15.13;8.18;;;;;;;29.42;47.08;96960.66;5021725;28;20051;-67
2022/08/29 07:41:22;;;;;;;25.08;9.77;;;;;;;28.64;48.00;96865.81;5018888;28;20049;-74
2022/08/29 07:43:50;;;;;;;21.40;9.20;;;;;;;29.16;48.45;96965.47;5003932;28;20061;-65
2022/08/29 07:46:18;;;;;;;19.52;8.95;;;;;;;29.00;48.79;96968.00;5004615;28;20049;-68
2022/08/29 07:48:45;;;;;;;23.95;9.30;;;;;;;28.30;48.51;96840.84;5004605;28;20475;-70
2022/08/29 07:51:18;;;;;;;17.85;8.43;;;;;;;28.61;47.88;96852.53;5017458;28;20068;-68
2022/08/29 07:53:45;;;;;;;17.50;8.48;;;;;;;29.21;47.17;96916.22;5017324;28;20085;-70
2022/08/29 07:56:16;;;;;;;18.48;9.25;;;;;;;29.41;47.83;96924.03;5002550;28;20050;-73
2022/08/29 07:58:43;;;;;;;25.70;8.63;;;;;;;28.66;47.69;96772.03;5004196;28;20049;-74
2022/08/29 08:01:10;;;;;;;18.52;10.13;;;;;;;30.19;47.50;96949.44;5005771;28;20509;-76
2022/08/29 08:03:48;;;;;;;17.27;8.70;;;;;;;30.65;45.45;96953.06;5018830;28;20066;-70
2022/08/29 08:06:18;;;;;;;19.85;8.02;;;;;;;30.78;44.06;96942.03;5014461;28;20554;-63
2022/08/29 08:08:45;;;;;;;23.02;9.90;;;;;;;30.51;44.05;96885.34;5021053;28;20057;-68
2022/08/29 08:11:11;;;;;;;18.25;8.05;;;;;;;30.29;43.27;96833.69;5011642;28;20052;-71
2022/08/29 08:13:38;;;;;;;15.98;8.35;;;;;;;30.76;43.01;96895.97;5024020;28;20057;-69
2022/08/29 08:16:07;;;;;;;17.65;8.55;;;;;;;31.44;42.68;96943.84;5019323;28;20444;-73
2022/08/29 08:18:36;;;;;;;20.23;8.65;;;;;;;31.41;42.47;96933.41;5004987;28;20054;-72
2022/08/29 08:21:03;;;;;;;21.20;8.02;;;;;;;31.73;41.54;96943.47;5003877;28;20061;-78
2022/08/29 08:23:31;;;;;;;20.45;8.85;;;;;;;31.76;42.67;96930.97;5006573;28;20052;-68
2022/08/29 08:25:58;;;;;;;21.50;8.15;;;;;;;31.79;40.15;96895.59;5003828;28;20049;-73
2022/08/29 08:28:27;;;;;;;20.42;8.60;;;;;;;32.04;41.19;96929.81;5003945;28;20079;-67
2022/08/29 08:30:54;;;;;;;17.05;9.07;;;;;;;31.36;42.22;96902.66;5004528;28;20054;-72
2022/08/29 08:33:20;;;;;;;33.08;15.02;;;;;;;31.80;41.97;96937.25;5005451;28;20050;-66
2022/08/29 08:35:47;;;;;;;16.88;9.02;;;;;;;31.97;42.31;96929.53;5011577;28;20459;-71
2022/08/29 08:38:15;;;;;;;16.73;7.90;;;;;;;32.28;42.21;96915.00;5003781;28;20069;-66
2022/08/29 08:41:02;;;;;;;17.83;8.32;;;;;;;31.92;41.31;96927.41;5008976;28;20045;-62
2022/08/29 08:43:41;;;;;;;22.00;8.50;;;;;;;30.51;42.65;96928.22;5021810;28;20045;-64
2022/08/29 08:46:08;;;;;;;22.30;7.97;;;;;;;30.37;42.75;96846.22;5011111;28;20045;-65
2022/08/29 08:48:38;;;;;;;21.42;8.32;;;;;;;31.07;42.84;96923.78;5003121;28;20054;-64
2022/08/29 08:51:18;;;;;;;16.25;7.93;;;;;;;31.35;41.53;96921.91;5004721;28;20045;-72
2022/08/29 08:53:53;;;;;;;20.90;7.95;;;;;;;31.55;41.18;96918.13;5023606;28;20066;-71
2022/08/29 08:56:43;;;;;;;22.77;8.13;;;;;;;32.04;39.90;96917.59;5023492;28;20058;-67
2022/08/29 08:59:29;;;;;;;17.52;7.05;;;;;;;31.99;38.28;96919.13;5023648;28;20057;-66
2022/08/29 09:02:10;;;;;;;21.45;8.02;;;;;;;31.88;38.56;96915.44;5021527;28;20183;-70
2022/08/29 09:04:37;;;;;;;30.95;8.10;;;;;;;31.91;39.08;96914.41;5023480;28;20049;-67
2022/08/29 09:07:10;;;;;;;24.52;8.50;;;;;;;32.20;38.11;96913.97;5023187;28;20049;-69
2022/08/29 09:10:05;;;;;;;19.53;7.63;;;;;;;32.02;37.93;96880.84;5010840;28;20424;-69
2022/08/29 09:12:50;;;;;;;16.23;7.38;;;;;;;31.01;37.54;96736.16;5011726;28;20519;-70
2022/08/29 09:15:24;;;;;;;17.77;8.93;;;;;;;32.47;37.24;96919.00;5007186;28;20088;-67
2022/08/29 09:18:10;;;;;;;21.73;9.25;;;;;;;31.91;37.38;96811.22;5003989;28;20053;-67
2022/08/29 09:20:42;;;;;;;14.68;8.10;;;;;;;32.32;37.41;96902.00;5003927;28;20473;-67
2022/08/29 09:23:24;;;;;;;24.52;9.50;;;;;;;32.15;37.50;96900.41;5015058;28;20058;-75
2022/08/29 09:25:51;;;;;;;21.25;8.30;;;;;;;31.39;37.76;96769.91;5003997;28;20057;-70
2022/08/29 09:28:17;;;;;;;21.45;7.57;;;;;;;31.14;38.08;96799.44;5010870;28;20512;-69
2022/08/29 09:31:16;;;;;;;17.48;8.30;;;;;;;32.37;36.69;96900.47;5016046;28;20140;-67
2022/08/29 09:33:48;;;;;;;20.40;7.50;;;;;;;32.06;36.45;96846.16;5019906;28;20072;-70
2022/08/29 09:36:44;;;;;;;14.82;7.85;;;;;;;32.45;36.39;96900.75;5010641;28;20046;-66
2022/08/29 09:39:13;;;;;;;24.02;7.88;;;;;;;32.67;36.03;96884.34;5007518;28;20065;-66
2022/08/29 09:41:41;;;;;;;19.10;8.00;;;;;;;32.53;36.36;96873.13;5007328;28;20156;-66
2022/08/29 09:44:13;;;;;;;26.58;9.15;;;;;;;32.32;35.97;96823.78;5005626;28;20050;-67
2022/08/29 09:46:41;;;;;;;17.75;7.88;;;;;;;32.88;35.83;96894.25;5023415;28;20503;-71
2022/08/29 09:49:17;;;;;;;18.20;7.07;;;;;;;33.21;34.29;96879.84;5012097;28;20054;-74
2022/08/29 09:51:47;;;;;;;22.50;8.75;;;;;;;32.64;35.57;96891.13;5006010;28;20054;-64
2022/08/29 09:54:26;;;;;;;22.05;8.40;;;;;;;33.17;35.11;96876.47;5013217;28;20053;-71
2022/08/29 09:57:22;;;;;;;25.48;8.27;;;;;;;33.38;33.90;96877.75;5012811;28;20058;-66
2022/08/29 10:00:11;;;;;;;17.67;7.53;;;;;;;33.67;32.80;96877.13;5000854;28;20056;-67
2022/08/29 10:02:41;;;;;;;21.35;7.72;;;;;;;33.46;32.92;96875.91;5006838;28;20056;-68
2022/08/29 10:05:24;;;;;;;26.73;8.60;;;;;;;33.61;33.71;96882.13;5005573;28;20053;-72
2022/08/29 10:07:51;;;;;;;22.27;9.27;;;;;;;32.48;33.80;96814.44;5005823;28;20057;-66
2022/08/29 10:10:24;;;;;;;24.17;8.57;;;;;;;32.97;33.28;96891.13;5008600;28;20054;-66
2022/08/29 10:13:02;;;;;;;19.60;7.38;;;;;;;33.33;32.23;96878.53;5026134;28;20064;-65
2022/08/29 10:15:35;;;;;;;28.30;8.45;;;;;;;32.15;31.69;96648.13;5025749;28;20436;-69
2022/08/29 10:18:35;;;;;;;16.20;8.55;;;;;;;34.19;31.25;96874.31;5025080;28;20186;-68
2022/08/29 10:21:30;;;;;;;24.30;8.38;;;;;;;34.82;29.96;96868.34;5025767;28;20519;-67
2022/08/29 10:24:16;;;;;;;22.55;9.15;;;;;;;34.88;30.57;96871.97;5024188;28;20045;-67
2022/08/29 10:27:03;;;;;;;17.40;8.63;;;;;;;35.22;29.36;96838.63;5023762;28;20107;-70
2022/08/29 10:30:00;;;;;;;19.13;8.13;;;;;;;33.76;30.75;96772.59;5023373;28;20053;-62
2022/08/29 10:32:32;;;;;;;12.48;7.07;;;;;;;34.54;31.09;96876.44;5025648;28;20053;-65
2022/08/29 10:35:10;;;;;;;22.53;9.53;;;;;;;34.67;32.00;96873.69;5020820;28;20045;-67
2022/08/29 10:37:48;;;;;;;11.18;6.10;;;;;;;34.20;31.72;96866.44;5024919;28;20435;-64
2022/08/29 10:40:21;;;;;;;11.35;7.13;;;;;;;34.30;32.30;96870.56;5019811;28;20049;-73
2022/08/29 10:42:51;;;;;;;12.55;6.80;;;;;;;34.07;31.29;96752.00;5018816;28;20508;-70
2022/08/29 10:45:34;;;;;;;10.77;6.13;;;;;;;34.88;31.36;96881.41;5005130;28;20054;-72
2022/08/29 10:48:10;;;;;;;12.32;6.65;;;;;;;34.35;32.04;96864.75;5007842;28;20619;-67
2022/08/29 10:50:57;;;;;;;15.30;6.93;;;;;;;33.90;32.62;96879.94;5005732;28;20512;-71
2022/08/29 10:53:30;;;;;;;14.77;7.13;;;;;;;34.33;31.32;96881.00;5004757;28;20057;-73
2022/08/29 10:56:12;;;;;;;;;;;;;;;34.45;31.22;96868.13;5005279;28;20053;-70
2022/08/29 10:58:45;;;;;;;13.90;6.47;;;;;;;34.08;30.53;96874.38;5004219;28;19926;-74
2022/08/29 11:01:41;;;;;;;15.75;7.25;;;;;;;34.37;30.82;96864.22;5004376;28;20050;-72
2022/08/29 11:04:16;;;;;;;14.35;7.28;;;;;;;34.14;31.20;96825.44;5009923;28;20069;-73
2022/08/29 11:06:52;;;;;;;17.40;7.25;;;;;;;34.42;29.98;96857.69;5023548;28;20337;-69
2022/08/29 11:09:32;;;;;;;14.48;7.13;;;;;;;33.99;30.43;96784.75;5024119;28;20133;-70
2022/08/29 11:12:16;;;;;;;15.40;6.97;;;;;;;34.48;33.64;96869.91;5020418;28;20061;-68
2022/08/29 11:14:53;;;;;;;17.60;6.93;;;;;;;34.11;32.82;96791.97;5003742;28;20061;-70
2022/08/29 11:17:24;;;;;;;15.55;6.95;;;;;;;34.49;30.77;96862.88;5019214;28;20053;-63
2022/08/29 11:19:56;;;;;;;14.70;6.68;;;;;;;34.11;31.64;96863.88;5025194;28;20518;-68
2022/08/29 11:22:36;;;;;;;16.75;7.50;;;;;;;33.85;31.22;96854.84;5023483;28;20049;-67
2022/08/29 11:25:12;;;;;;;14.23;6.68;;;;;;;34.26;31.16;96841.28;5019078;28;20563;-67
2022/08/29 11:27:52;;;;;;;22.13;7.93;;;;;;;33.88;34.83;96842.31;5002934;28;20050;-71
2022/08/29 11:30:26;;;;;;;15.55;7.55;;;;;;;33.51;35.73;96791.00;5004054;28;20062;-76
2022/08/29 11:32:56;;;;;;;15.35;7.40;;;;;;;34.16;35.28;96857.31;5003153;28;20061;-71
2022/08/29 11:35:38;;;;;;;16.02;6.75;;;;;;;33.60;33.65;96863.31;5020254;28;20061;-74
2022/08/29 11:38:41;;;;;;;18.50;7.32;;;;;;;33.44;33.48;96855.53;5041321;28;20072;-62
2022/08/29 11:41:20;;;;;;;20.35;8.02;;;;;;;32.91;35.71;96858.75;5015006;28;20084;-69
2022/08/29 11:44:31;;;;;;;16.15;7.82;;;;;;;32.57;36.13;96831.38;5005878;28;20046;-72
2022/08/29 11:46:59;;;;;;;11.48;6.88;;;;;;;31.91;35.76;96739.59;5023920;28;20053;-68